Time;durP1;ratioP1;P1;durP2;ratioP2;P2;SDS_P1;SDS_P2;PMS_P1;PMS_P2;Temp;Humidity;BMP_temperature;BMP_pressure;BME280_temperature;BME280_humidity;BME280_pressure;Samples;Min_cycle;Max_cycle;Signal;HPM_P1;HPM_P2
2023/10/07 00:00:59;;;;;;;9.18;3.78;;;;;;;4.00;100.00;93916.91;2082398;28;20489;-81
2023/10/07 00:02:11;;;;;;;8.27;2.97;;;;;;;3.95;100.00;93920.59;2092739;28;20028;-82
2023/10/07 00:03:18;;;;;;;5.68;3.00;;;;;;;3.97;100.00;93921.00;2100935;28;20047;-84
2023/10/07 00:04:19;;;;;;;8.40;3.05;;;;;;;3.97;100.00;93920.25;2102295;28;20036;-82
2023/10/07 00:05:26;;;;;;;7.13;3.20;;;;;;;4.03;100.00;93916.94;2085749;28;20021;-84
2023/10/07 00:06:27;;;;;;;8.82;2.88;;;;;;;3.97;100.00;93913.06;2086116;28;20032;-82
2023/10/07 00:07:31;;;;;;;7.25;2.72;;;;;;;3.92;100.00;93912.59;2082169;28;20036;-83
2023/10/07 00:08:34;;;;;;;8.63;3.15;;;;;;;3.97;100.00;93910.41;2093580;28;20070;-82
2023/10/07 00:09:50;;;;;;;6.80;3.10;;;;;;;4.02;100.00;93909.34;2086052;28;20051;-83
2023/10/07 00:10:51;;;;;;;8.50;3.08;;;;;;;3.90;100.00;93907.66;2082573;28;20159;-81
2023/10/07 00:11:55;;;;;;;8.40;3.38;;;;;;;3.89;100.00;93910.66;2083044;28;20103;-83
2023/10/07 00:12:58;;;;;;;6.28;3.13;;;;;;;3.88;100.00;93906.50;2090424;28;20493;-82
2023/10/07 00:13:59;;;;;;;10.13;3.30;;;;;;;3.82;100.00;93905.25;2087229;28;20028;-82
2023/10/07 00:15:01;;;;;;;7.32;3.38;;;;;;;3.86;100.00;93904.19;2093408;28;20020;-83
2023/10/07 00:16:03;;;;;;;13.93;3.15;;;;;;;3.90;100.00;93902.38;2103106;28;20031;-81
2023/10/07 00:17:06;;;;;;;6.43;3.13;;;;;;;3.92;100.00;93900.16;2094930;28;20053;-82
2023/10/07 00:18:13;;;;;;;5.95;2.92;;;;;;;3.93;100.00;93903.53;2109907;28;20020;-83
2023/10/07 00:19:16;;;;;;;8.98;2.80;;;;;;;3.88;100.00;93899.31;2102335;28;20131;-81
2023/10/07 00:20:20;;;;;;;8.95;3.13;;;;;;;3.85;100.00;93893.97;2096790;28;20473;-81
2023/10/07 00:21:27;;;;;;;11.57;3.70;;;;;;;3.84;100.00;93897.75;2088959;28;20033;-83
2023/10/07 00:22:40;;;;;;;7.72;3.20;;;;;;;3.91;100.00;93898.63;2080028;28;20022;-81
2023/10/07 00:23:42;;;;;;;7.32;2.92;;;;;;;3.87;100.00;93897.78;2090616;28;20230;-83
2023/10/07 00:24:45;;;;;;;9.18;2.88;;;;;;;3.86;100.00;93898.91;2086299;28;20029;-82
2023/10/07 00:25:50;;;;;;;9.90;3.88;;;;;;;3.91;100.00;93898.63;2104922;28;20469;-83
2023/10/07 00:26:52;;;;;;;6.72;3.67;;;;;;;3.79;100.00;93902.19;2104673;28;20028;-82
2023/10/07 00:27:53;;;;;;;8.75;2.95;;;;;;;3.83;100.00;93904.16;2095522;28;20032;-82
2023/10/07 00:29:01;;;;;;;6.93;2.80;;;;;;;3.84;100.00;93906.44;2103085;28;20038;-82
2023/10/07 00:30:15;;;;;;;5.93;2.78;;;;;;;3.78;100.00;93902.56;2100104;28;20358;-81
2023/10/07 00:31:27;;;;;;;6.28;2.80;;;;;;;3.74;100.00;93902.50;2090991;28;20025;-82
2023/10/07 00:32:33;;;;;;;8.13;3.08;;;;;;;3.67;100.00;93912.19;2087771;28;20047;-82
2023/10/07 00:34:02;;;;;;;8.77;3.15;;;;;;;3.71;100.00;93897.91;2087858;28;20458;-83
2023/10/07 00:35:06;;;;;;;5.75;2.88;;;;;;;3.71;100.00;93895.25;2092542;28;20020;-82
2023/10/07 00:36:10;;;;;;;9.50;3.30;;;;;;;3.69;100.00;93896.75;2081079;28;20124;-81
2023/10/07 00:37:11;;;;;;;8.77;2.95;;;;;;;3.66;100.00;93892.16;2088947;28;20130;-82
2023/10/07 00:38:14;;;;;;;8.38;3.35;;;;;;;3.56;100.00;93892.72;2101466;28;20068;-83
2023/10/07 00:39:22;;;;;;;6.80;3.30;;;;;;;3.63;100.00;93890.97;2097495;28;20024;-83
2023/10/07 00:40:40;;;;;;;7.90;2.85;;;;;;;3.58;100.00;93893.16;2098103;28;20020;-83
2023/10/07 00:41:46;;;;;;;7.70;3.38;;;;;;;3.53;100.00;93894.19;2098586;28;20036;-82
2023/10/07 00:42:50;;;;;;;9.25;2.97;;;;;;;3.58;100.00;93888.63;2083406;28;20040;-82
2023/10/07 00:43:58;;;;;;;9.85;3.50;;;;;;;3.57;100.00;93888.97;2091654;28;20132;-82
2023/10/07 00:45:02;;;;;;;7.78;3.08;;;;;;;3.40;100.00;93885.66;2090125;28;20204;-83
2023/10/07 00:46:10;;;;;;;10.05;3.50;;;;;;;3.45;100.00;93885.38;2105932;28;20079;-83
2023/10/07 00:47:14;;;;;;;7.15;3.38;;;;;;;3.50;100.00;93884.31;2103480;28;20385;-82
2023/10/07 00:48:16;;;;;;;7.28;3.08;;;;;;;3.48;100.00;93889.22;2088192;28;20060;-83
2023/10/07 00:49:23;;;;;;;7.30;3.25;;;;;;;3.41;100.00;93887.19;2080759;28;20115;-82
2023/10/07 00:50:24;;;;;;;7.38;2.78;;;;;;;3.51;100.00;93889.28;2086924;28;20386;-82
2023/10/07 00:51:36;;;;;;;9.75;3.00;;;;;;;3.51;100.00;93884.00;2098267;28;20674;-82
2023/10/07 00:52:55;;;;;;;9.63;3.17;;;;;;;3.48;100.00;93882.03;2090259;28;20029;-82
2023/10/07 00:55:30;;;;;;;5.68;2.78;;;;;;;3.40;100.00;93884.91;2068436;28;20033;-83
2023/10/07 00:56:42;;;;;;;5.50;3.03;;;;;;;3.38;100.00;93887.13;2086217;28;20033;-83
2023/10/07 00:58:03;;;;;;;5.93;3.22;;;;;;;3.25;100.00;93878.63;2090156;28;20389;-83
2023/10/07 00:59:07;;;;;;;6.43;2.90;;;;;;;3.28;100.00;93883.19;2095409;28;20035;-83
2023/10/07 01:01:28;;;;;;;7.53;2.65;;;;;;;3.33;100.00;93871.56;2100480;28;20033;-81
2023/10/07 01:02:30;;;;;;;6.07;2.90;;;;;;;3.42;100.00;93875.50;2105106;28;20074;-83
2023/10/07 01:03:47;;;;;;;6.82;3.05;;;;;;;3.36;100.00;93876.91;2087225;28;20104;-83
2023/10/07 01:04:49;;;;;;;7.47;2.88;;;;;;;3.43;100.00;93874.41;2077646;28;20109;-82
2023/10/07 01:06:38;;;;;;;7.40;3.00;;;;;;;3.44;100.00;93875.94;2087209;28;20039;-82
2023/10/07 01:07:19;;;;;;;8.25;2.72;;;;;;;3.38;100.00;93877.34;2089366;28;20477;-81
2023/10/07 01:08:27;;;;;;;7.13;3.20;;;;;;;3.42;100.00;93883.44;2088919;28;20052;-82
2023/10/07 01:09:29;;;;;;;6.47;2.83;;;;;;;3.41;100.00;93881.91;2081894;28;20021;-82
2023/10/07 01:10:31;;;;;;;8.15;3.00;;;;;;;3.34;100.00;93878.41;2093489;28;20098;-83
2023/10/07 01:11:39;;;;;;;6.10;3.15;;;;;;;3.34;100.00;93879.16;2097160;28;20115;-83
2023/10/07 01:12:42;;;;;;;8.27;3.25;;;;;;;3.38;100.00;93872.06;2089642;28;20025;-82
2023/10/07 01:14:05;;;;;;;8.35;3.20;;;;;;;3.33;100.00;93872.31;2079803;28;20032;-83
2023/10/07 01:17:40;;;;;;;6.13;2.80;;;;;;;3.23;100.00;93875.53;2098061;28;20024;-81
2023/10/07 01:18:42;;;;;;;5.03;2.60;;;;;;;3.29;100.00;93874.13;2097160;28;20109;-81
2023/10/07 01:19:51;;;;;;;6.38;3.20;;;;;;;3.27;100.00;93871.09;2089031;28;20033;-82
2023/10/07 01:21:55;;;;;;;6.13;3.03;;;;;;;3.41;100.00;93876.63;2102675;28;20491;-83
2023/10/07 01:23:03;;;;;;;4.63;2.40;;;;;;;3.24;100.00;93877.06;2086891;28;20379;-84
2023/10/07 01:24:06;;;;;;;5.68;2.83;;;;;;;3.14;100.00;93878.41;2093736;28;20039;-82
2023/10/07 01:25:09;;;;;;;6.05;2.80;;;;;;;3.12;100.00;93872.72;2081080;28;23001;-81
2023/10/07 01:26:21;;;;;;;9.63;3.20;;;;;;;3.11;100.00;93873.81;2080322;28;20116;-83
2023/10/07 01:28:26;;;;;;;9.25;3.30;;;;;;;3.23;100.00;93867.63;2096180;28;20036;-82
2023/10/07 01:29:28;;;;;;;6.18;2.70;;;;;;;3.28;100.00;93865.44;2091034;28;20024;-82
2023/10/07 01:30:30;;;;;;;5.05;3.03;;;;;;;3.20;100.00;93863.03;2089471;28;20027;-82
2023/10/07 01:31:31;;;;;;;9.10;3.60;;;;;;;3.30;100.00;93867.75;2104416;28;20077;-82
2023/10/07 01:32:33;;;;;;;6.35;2.70;;;;;;;3.34;100.00;93860.66;2089374;28;20044;-83
2023/10/07 01:33:46;;;;;;;5.25;3.00;;;;;;;3.30;100.00;93865.13;2095847;28;20086;-82
2023/10/07 01:34:52;;;;;;;7.30;2.80;;;;;;;3.42;100.00;93854.34;2096810;28;20593;-83
2023/10/07 01:36:18;;;;;;;7.65;2.70;;;;;;;3.47;100.00;93859.38;2099253;28;20037;-82
2023/10/07 01:37:22;;;;;;;6.47;2.97;;;;;;;3.49;100.00;93862.41;2103324;28;20385;-82
2023/10/07 01:38:24;;;;;;;8.25;2.88;;;;;;;3.41;100.00;93854.72;2094014;28;20043;-83
2023/10/07 01:39:25;;;;;;;5.80;2.38;;;;;;;3.35;100.00;93848.22;2080328;28;20489;-83
2023/10/07 01:40:45;;;;;;;7.45;2.90;;;;;;;3.31;100.00;93852.66;2094250;28;20028;-82
2023/10/07 01:41:46;;;;;;;4.47;2.30;;;;;;;3.35;100.00;93851.63;2097266;28;20473;-83
2023/10/07 01:42:47;;;;;;;6.38;2.85;;;;;;;3.27;100.00;93848.06;2096773;28;20025;-83
2023/10/07 01:43:59;;;;;;;7.68;3.05;;;;;;;3.41;100.00;93846.78;2094434;28;20028;-82
2023/10/07 01:45:09;;;;;;;6.32;2.83;;;;;;;3.46;100.00;93849.91;2092418;28;20055;-82
2023/10/07 01:46:11;;;;;;;5.00;2.42;;;;;;;3.33;100.00;93858.34;2089071;28;20024;-82
2023/10/07 01:47:24;;;;;;;6.72;2.67;;;;;;;3.37;100.00;93846.72;2083168;28;20044;-83
2023/10/07 01:48:25;;;;;;;5.70;2.88;;;;;;;3.34;100.00;93849.34;2088946;28;20028;-83
2023/10/07 01:49:30;;;;;;;7.10;2.72;;;;;;;3.33;100.00;93851.19;2102302;28;20031;-82
2023/10/07 01:50:37;;;;;;;5.63;2.65;;;;;;;3.39;100.00;93852.44;2094615;28;20027;-82
2023/10/07 01:51:43;;;;;;;5.53;2.95;;;;;;;3.37;100.00;93849.38;2088368;28;20044;-82
2023/10/07 01:52:48;;;;;;;5.07;2.83;;;;;;;3.39;100.00;93855.09;2090658;28;20159;-83
2023/10/07 01:53:56;;;;;;;6.53;2.58;;;;;;;3.35;100.00;93858.78;2095895;28;20051;-82
2023/10/07 01:54:58;;;;;;;6.47;2.70;;;;;;;3.23;100.00;93851.78;2096533;28;20044;-83
2023/10/07 01:56:04;;;;;;;7.82;2.97;;;;;;;3.28;100.00;93849.59;2093420;28;20025;-84
2023/10/07 01:57:07;;;;;;;5.10;2.70;;;;;;;3.24;100.00;93861.22;2081423;28;20087;-83
2023/10/07 01:58:19;;;;;;;5.47;2.40;;;;;;;3.15;100.00;93858.78;2084599;28;20017;-83
2023/10/07 01:59:21;;;;;;;5.43;2.67;;;;;;;2.90;100.00;93861.00;2093713;28;20111;-83
2023/10/07 02:00:44;;;;;;;6.07;2.40;;;;;;;2.99;100.00;93861.53;2093914;28;20466;-83
2023/10/07 02:02:06;;;;;;;6.05;2.88;;;;;;;3.04;100.00;93857.84;2092340;28;20032;-82
2023/10/07 02:03:13;;;;;;;7.50;2.80;;;;;;;3.03;100.00;93865.00;2086784;28;20708;-84
2023/10/07 02:04:18;;;;;;;5.30;2.47;;;;;;;3.13;100.00;93852.34;2093984;28;20425;-82
2023/10/07 02:05:25;;;;;;;5.93;2.70;;;;;;;3.11;100.00;93863.25;2098638;28;20032;-83
2023/10/07 02:06:28;;;;;;;5.97;2.88;;;;;;;3.02;100.00;93854.78;2094521;28;20045;-84
2023/10/07 02:07:30;;;;;;;5.55;2.42;;;;;;;3.05;100.00;93853.34;2087710;28;20559;-82
2023/10/07 02:08:31;;;;;;;7.30;2.65;;;;;;;3.10;100.00;93847.75;2083481;28;20032;-82
2023/10/07 02:09:36;;;;;;;5.93;2.67;;;;;;;2.99;100.00;93852.84;2086632;28;20021;-83
2023/10/07 02:10:45;;;;;;;7.03;2.92;;;;;;;3.00;100.00;93846.47;2080432;28;20025;-81
2023/10/07 02:11:48;;;;;;;7.18;2.40;;;;;;;3.03;100.00;93845.78;2085908;28;20071;-82
2023/10/07 02:12:53;;;;;;;10.38;2.80;;;;;;;3.12;100.00;93842.91;2089379;28;20409;-83
2023/10/07 02:13:58;;;;;;;6.10;2.97;;;;;;;3.21;100.00;93838.91;2088156;28;20033;-82
2023/10/07 02:15:08;;;;;;;7.90;3.10;;;;;;;3.32;100.00;93839.09;2080318;28;20441;-82
2023/10/07 02:16:09;;;;;;;6.80;2.95;;;;;;;3.25;100.00;93844.28;2080807;28;20052;-83
2023/10/07 02:17:14;;;;;;;6.40;2.75;;;;;;;3.26;100.00;93841.28;2095868;28;20093;-82
2023/10/07 02:18:15;;;;;;;9.75;2.95;;;;;;;3.29;100.00;93845.06;2100693;28;20110;-82
2023/10/07 02:19:27;;;;;;;7.10;3.17;;;;;;;3.28;100.00;93848.84;2088210;28;20159;-82
2023/10/07 02:20:32;;;;;;;7.20;2.53;;;;;;;3.32;100.00;93848.91;2090369;28;20485;-83
2023/10/07 02:25:04;;;;;;;5.30;2.47;;;;;;;2.92;100.00;93844.78;2102032;27;19911;-82
2023/10/07 02:26:06;;;;;;;6.70;2.70;;;;;;;2.86;100.00;93846.97;2123750;27;20026;-82
2023/10/07 02:27:18;;;;;;;6.15;2.75;;;;;;;2.76;100.00;93842.22;2120438;27;20480;-83
2023/10/07 02:28:21;;;;;;;6.40;2.72;;;;;;;2.76;100.00;93842.97;2116272;27;20024;-84
2023/10/07 02:29:24;;;;;;;5.05;2.65;;;;;;;2.67;100.00;93845.06;2109277;28;20015;-83
2023/10/07 02:30:25;;;;;;;5.57;2.45;;;;;;;2.76;100.00;93844.84;2112436;28;20023;-83
2023/10/07 02:31:29;;;;;;;6.53;2.83;;;;;;;2.74;100.00;93847.09;2114102;27;20702;-83
2023/10/07 02:32:32;;;;;;;7.13;2.88;;;;;;;2.80;100.00;93853.59;2111407;27;20504;-83
2023/10/07 02:33:56;;;;;;;8.15;3.05;;;;;;;2.65;100.00;93852.56;2116882;28;20088;-83
2023/10/07 02:34:59;;;;;;;6.15;2.70;;;;;;;2.72;100.00;93847.44;2129529;27;20026;-83
2023/10/07 02:36:03;;;;;;;7.20;3.13;;;;;;;2.75;100.00;93848.63;2120036;27;20389;-83
2023/10/07 02:37:12;;;;;;;5.78;2.78;;;;;;;2.76;100.00;93844.84;2129462;27;20500;-82
2023/10/07 02:38:23;;;;;;;8.20;3.05;;;;;;;2.77;100.00;93843.78;2128349;27;20113;-84
2023/10/07 02:39:26;;;;;;;5.68;2.30;;;;;;;2.75;100.00;93845.97;2113036;27;20295;-83
2023/10/07 02:40:48;;;;;;;5.85;2.70;;;;;;;2.77;100.00;93849.03;2105216;28;20499;-84
2023/10/07 02:41:51;;;;;;;6.85;2.78;;;;;;;2.61;100.00;93848.34;2114166;28;20050;-82
2023/10/07 02:42:54;;;;;;;5.63;2.70;;;;;;;2.59;100.00;93842.63;2111705;27;20182;-84
2023/10/07 02:43:55;;;;;;;5.85;2.33;;;;;;;2.53;100.00;93842.16;2128928;27;20339;-83
2023/10/07 02:45:01;;;;;;;8.38;2.78;;;;;;;2.60;100.00;93839.66;2130527;27;20022;-84
2023/10/07 02:46:05;;;;;;;7.03;2.92;;;;;;;2.66;100.00;93834.88;2116536;28;20661;-83
2023/10/07 02:47:11;;;;;;;6.75;2.88;;;;;;;2.67;100.00;93845.06;2112088;27;20027;-83
2023/10/07 02:48:13;;;;;;;8.60;2.92;;;;;;;2.65;100.00;93844.66;2115338;27;20037;-83
2023/10/07 02:49:14;;;;;;;6.28;2.70;;;;;;;2.74;100.00;93845.22;2111744;28;20019;-83
2023/10/07 02:50:16;;;;;;;7.60;2.90;;;;;;;2.77;100.00;93843.78;2111940;27;20101;-84
2023/10/07 02:51:18;;;;;;;5.70;2.67;;;;;;;2.73;100.00;93848.97;2114782;28;20027;-82
2023/10/07 02:52:19;;;;;;;7.32;3.00;;;;;;;2.69;100.00;93840.22;2120250;27;20369;-82
2023/10/07 02:53:20;;;;;;;9.73;3.35;;;;;;;2.73;100.00;93848.97;2115167;28;20020;-84
2023/10/07 02:54:23;;;;;;;5.88;2.83;;;;;;;2.65;100.00;93843.91;2120314;27;20462;-84
2023/10/07 02:56:30;;;;;;;6.22;2.58;;;;;;;2.65;100.00;93846.53;2128001;27;20026;-83
2023/10/07 02:57:39;;;;;;;5.18;2.75;;;;;;;2.81;100.00;93841.97;2128485;27;20355;-82
2023/10/07 02:58:49;;;;;;;7.30;2.92;;;;;;;2.79;100.00;93852.09;2133518;27;20029;-83
2023/10/07 02:59:51;;;;;;;5.25;2.80;;;;;;;2.85;100.00;93861.25;2128269;27;20023;-82
2023/10/07 03:00:58;;;;;;;5.90;2.78;;;;;;;2.81;100.00;93862.28;2119839;28;20062;-81
2023/10/07 03:03:38;;;;;;;4.22;2.28;;;;;;;2.83;100.00;93865.38;2125323;27;20027;-83
2023/10/07 03:04:43;;;;;;;5.93;2.78;;;;;;;2.77;100.00;93865.66;2122317;27;20055;-82
2023/10/07 03:05:45;;;;;;;8.43;2.78;;;;;;;2.89;100.00;93864.72;2120109;28;20026;-84
2023/10/07 03:06:46;;;;;;;5.28;2.55;;;;;;;2.81;100.00;93862.28;2117034;27;20028;-83
2023/10/07 03:08:01;;;;;;;5.57;2.83;;;;;;;2.62;100.00;93855.91;2113288;28;20067;-83
2023/10/07 03:09:10;;;;;;;6.05;2.78;;;;;;;2.77;100.00;93857.72;2113268;27;20034;-82
2023/10/07 03:10:17;;;;;;;5.88;2.88;;;;;;;2.82;100.00;93858.56;2115906;28;20020;-83
2023/10/07 03:11:21;;;;;;;8.43;2.80;;;;;;;2.82;100.00;93869.13;2120641;27;20114;-83
2023/10/07 03:12:28;;;;;;;6.35;2.83;;;;;;;2.79;100.00;93862.66;2120531;27;20023;-82
2023/10/07 03:13:37;;;;;;;7.28;2.92;;;;;;;2.72;100.00;93870.41;2111293;28;20020;-83
2023/10/07 03:14:39;;;;;;;10.15;3.10;;;;;;;2.57;100.00;93871.25;2122141;27;20030;-82
2023/10/07 03:15:40;;;;;;;4.38;2.35;;;;;;;2.63;100.00;93870.63;2124360;27;20037;-83
2023/10/07 03:16:46;;;;;;;5.72;2.42;;;;;;;2.64;100.00;93864.25;2129569;27;20037;-83
2023/10/07 03:17:49;;;;;;;4.30;2.08;;;;;;;2.59;100.00;93875.09;2111593;28;20028;-82
2023/10/07 03:19:06;;;;;;;7.30;2.92;;;;;;;2.52;100.00;93873.06;2101672;28;20031;-82
2023/10/07 03:21:35;;;;;;;6.75;2.40;;;;;;;2.68;100.00;93878.28;2127904;27;20034;-83
2023/10/07 03:23:10;;;;;;;6.50;2.63;;;;;;;2.45;100.00;93875.53;2119657;28;20185;-82
2023/10/07 03:23:58;;;;;;;9.40;2.65;;;;;;;2.46;100.00;93874.44;2105958;28;20036;-82
2023/10/07 03:25:03;;;;;;;6.28;2.38;;;;;;;2.48;100.00;93882.00;2101599;28;20572;-84
2023/10/07 03:27:10;;;;;;;5.68;2.55;;;;;;;2.58;100.00;93875.41;2110633;27;20016;-82
2023/10/07 03:28:16;;;;;;;6.28;2.55;;;;;;;2.59;100.00;93876.94;2121645;27;20093;-83
2023/10/07 03:29:30;;;;;;;5.03;2.50;;;;;;;2.50;100.00;93888.47;2106905;28;20020;-83
2023/10/07 03:30:31;;;;;;;5.20;2.60;;;;;;;2.51;100.00;93889.25;2113056;28;20016;-82
2023/10/07 03:32:56;;;;;;;5.20;2.33;;;;;;;2.44;100.00;93891.72;2112675;28;20539;-83
2023/10/07 03:34:00;;;;;;;5.32;2.53;;;;;;;2.53;100.00;93893.03;2103710;28;20051;-83
2023/10/07 03:35:16;;;;;;;5.38;2.45;;;;;;;2.52;100.00;93896.78;2089637;28;20036;-82
2023/10/07 03:37:30;;;;;;;5.50;2.25;;;;;;;2.36;100.00;93892.66;2109050;28;20024;-83
2023/10/07 03:38:32;;;;;;;7.82;2.60;;;;;;;2.40;100.00;93880.31;2104223;28;20051;-82
2023/10/07 03:39:56;;;;;;;6.00;2.80;;;;;;;2.42;100.00;93883.41;2105932;28;20085;-82
2023/10/07 03:40:57;;;;;;;4.20;2.30;;;;;;;2.49;100.00;93875.63;2108051;28;20353;-83
2023/10/07 03:42:02;;;;;;;3.72;2.35;;;;;;;2.50;100.00;93883.19;2097097;28;20028;-83
2023/10/07 03:43:04;;;;;;;4.32;2.05;;;;;;;2.45;100.00;93878.16;2098639;28;20013;-83
2023/10/07 03:44:05;;;;;;;5.75;2.42;;;;;;;2.51;100.00;93884.72;2113363;28;20027;-82
2023/10/07 03:45:06;;;;;;;4.43;2.30;;;;;;;2.54;100.00;93875.34;2101011;28;20020;-82
2023/10/07 03:46:07;;;;;;;5.47;2.70;;;;;;;2.42;100.00;93878.13;2105782;28;20111;-83
2023/10/07 03:47:11;;;;;;;5.72;2.92;;;;;;;2.39;100.00;93870.88;2113645;28;20031;-82
2023/10/07 03:48:24;;;;;;;4.60;2.22;;;;;;;2.39;100.00;93876.16;2109943;28;20020;-84
2023/10/07 03:49:33;;;;;;;7.35;2.78;;;;;;;2.49;100.00;93872.97;2105911;28;20031;-83
2023/10/07 03:50:37;;;;;;;4.70;2.30;;;;;;;2.49;100.00;93871.09;2090955;28;20120;-83
2023/10/07 03:51:38;;;;;;;5.25;2.88;;;;;;;2.44;100.00;93876.66;2107092;27;20445;-82
2023/10/07 03:52:40;;;;;;;5.30;2.47;;;;;;;2.55;100.00;93868.19;2113908;28;20043;-82
2023/10/07 03:53:46;;;;;;;5.32;2.15;;;;;;;2.52;100.00;93867.78;2117807;27;20105;-82
2023/10/07 03:54:48;;;;;;;3.90;2.40;;;;;;;2.68;100.00;93873.00;2098102;28;20040;-84
2023/10/07 03:55:49;;;;;;;7.57;2.92;;;;;;;2.70;100.00;93870.78;2082674;28;20509;-83
2023/10/07 03:56:51;;;;;;;4.70;2.42;;;;;;;2.63;100.00;93880.41;2089347;28;20071;-84
2023/10/07 03:57:52;;;;;;;4.85;2.05;;;;;;;2.56;100.00;93875.78;2095783;28;20031;-83
2023/10/07 03:58:55;;;;;;;3.88;2.35;;;;;;;2.66;100.00;93874.44;2110788;28;20485;-82
2023/10/07 03:59:58;;;;;;;4.72;2.65;;;;;;;2.49;100.00;93884.28;2113688;28;20556;-83
2023/10/07 04:01:11;;;;;;;4.68;2.20;;;;;;;2.61;100.00;93878.13;2103238;28;20391;-82
2023/10/07 04:02:34;;;;;;;5.65;2.40;;;;;;;2.45;100.00;93887.97;2096414;28;20229;-83
2023/10/07 04:03:35;;;;;;;5.65;2.60;;;;;;;2.38;100.00;93880.69;2112222;27;20019;-83
2023/10/07 04:04:36;;;;;;;4.32;2.20;;;;;;;2.48;100.00;93874.84;2105787;28;20035;-82
2023/10/07 04:05:42;;;;;;;4.85;2.40;;;;;;;2.51;100.00;93887.34;2096704;28;20016;-83
2023/10/07 04:06:43;;;;;;;3.40;2.15;;;;;;;2.61;100.00;93882.66;2107111;27;20028;-84
2023/10/07 04:07:48;;;;;;;5.50;2.60;;;;;;;2.70;100.00;93883.22;2123292;27;20023;-81
2023/10/07 04:08:56;;;;;;;7.25;2.78;;;;;;;2.51;100.00;93889.25;2113213;28;20028;-83
2023/10/07 04:10:31;;;;;;;4.10;2.35;;;;;;;2.32;100.00;93884.66;2114523;27;20023;-83
2023/10/07 04:11:39;;;;;;;5.70;2.25;;;;;;;2.36;100.00;93880.25;2112350;28;20022;-82
2023/10/07 04:12:46;;;;;;;5.07;2.60;;;;;;;2.35;100.00;93886.63;2103144;28;20406;-82
2023/10/07 04:13:53;;;;;;;5.38;2.28;;;;;;;2.31;100.00;93887.66;2114523;27;20465;-83
2023/10/07 04:14:55;;;;;;;6.75;2.72;;;;;;;2.39;100.00;93892.75;2113432;28;20019;-82
2023/10/07 04:15:57;;;;;;;4.18;1.90;;;;;;;2.33;100.00;93886.22;2105634;28;20419;-83
2023/10/07 04:17:11;;;;;;;5.20;2.25;;;;;;;2.33;100.00;93893.34;2104880;28;20055;-82
2023/10/07 04:18:17;;;;;;;6.55;3.08;;;;;;;2.25;100.00;93889.81;2102986;28;20052;-83
2023/10/07 04:20:22;;;;;;;6.93;2.60;;;;;;;2.26;100.00;93905.28;2113447;28;20029;-84
2023/10/07 04:21:24;;;;;;;3.70;2.20;;;;;;;2.24;100.00;93896.97;2105579;28;20040;-82
2023/10/07 04:22:25;;;;;;;4.78;2.42;;;;;;;2.26;100.00;93893.97;2096734;28;20028;-83
2023/10/07 04:23:26;;;;;;;4.53;2.30;;;;;;;2.29;100.00;93898.56;2097993;28;20099;-84
2023/10/07 04:24:28;;;;;;;5.22;2.33;;;;;;;2.34;100.00;93903.56;2105417;28;20038;-82
2023/10/07 04:25:31;;;;;;;5.45;2.50;;;;;;;2.43;100.00;93904.16;2104958;28;20697;-83
2023/10/07 04:26:33;;;;;;;4.93;2.05;;;;;;;2.49;100.00;93909.91;2105403;28;20035;-83
2023/10/07 04:27:41;;;;;;;6.95;2.90;;;;;;;2.50;100.00;93912.22;2102380;28;20060;-83
2023/10/07 04:28:43;;;;;;;5.00;2.33;;;;;;;2.52;100.00;93912.63;2106210;28;20035;-82
2023/10/07 04:29:46;;;;;;;5.28;2.78;;;;;;;2.35;100.00;93910.38;2101319;28;20112;-84
2023/10/07 04:30:47;;;;;;;5.57;2.72;;;;;;;2.36;100.00;93906.63;2097701;28;20035;-82
2023/10/07 04:31:53;;;;;;;4.60;2.40;;;;;;;2.51;100.00;93910.34;2104223;28;20384;-81
2023/10/07 04:33:00;;;;;;;6.47;2.40;;;;;;;2.49;100.00;93905.41;2107692;28;20027;-83
2023/10/07 04:34:03;;;;;;;6.80;2.55;;;;;;;2.51;100.00;93902.44;2105280;28;20016;-83
2023/10/07 04:35:19;;;;;;;4.40;2.90;;;;;;;2.50;100.00;93896.41;2098379;28;20044;-84
2023/10/07 04:36:54;;;;;;;5.85;2.40;;;;;;;2.62;100.00;93900.00;2107660;28;20035;-82
2023/10/07 04:37:55;;;;;;;6.25;2.72;;;;;;;2.69;100.00;93892.25;2104249;28;20102;-82
2023/10/07 04:38:57;;;;;;;5.00;2.28;;;;;;;2.68;100.00;93906.56;2113542;28;20417;-83
2023/10/07 04:40:53;;;;;;;5.82;2.55;;;;;;;2.52;100.00;93904.72;2105556;28;20024;-83
2023/10/07 04:42:36;;;;;;;3.78;2.38;;;;;;;2.64;100.00;93900.44;2103433;28;20081;-83
2023/10/07 04:43:47;;;;;;;5.60;2.38;;;;;;;2.68;100.00;93901.28;2110198;27;20051;-84
2023/10/07 04:45:53;;;;;;;5.45;2.40;;;;;;;2.56;100.00;93907.44;2113038;28;20023;-83
2023/10/07 04:46:56;;;;;;;6.10;2.83;;;;;;;2.58;100.00;93897.28;2102920;28;20421;-81
2023/10/07 04:48:23;;;;;;;3.75;2.53;;;;;;;2.36;100.00;93909.25;2097409;28;20109;-83
2023/10/07 04:49:23;;;;;;;5.03;2.10;;;;;;;2.40;100.00;93915.38;2109393;28;20114;-82
2023/10/07 04:50:33;;;;;;;5.85;2.13;;;;;;;2.51;100.00;93919.03;2101242;28;20027;-82
2023/10/07 04:52:50;;;;;;;5.20;2.40;;;;;;;2.61;100.00;93915.06;2113777;27;20383;-82
2023/10/07 04:53:57;;;;;;;5.70;2.70;;;;;;;2.64;100.00;93914.41;2113745;28;20043;-83
2023/10/07 04:55:00;;;;;;;3.75;2.15;;;;;;;2.52;100.00;93910.00;2106580;28;20035;-83
2023/10/07 04:56:01;;;;;;;4.60;2.53;;;;;;;2.53;100.00;93916.78;2113628;28;20030;-82
2023/10/07 04:57:09;;;;;;;7.38;2.97;;;;;;;2.44;100.00;93913.59;2104774;28;20491;-84
2023/10/07 04:58:12;;;;;;;5.85;2.92;;;;;;;2.42;100.00;93907.91;2098337;28;20028;-83
2023/10/07 04:59:13;;;;;;;5.05;2.60;;;;;;;2.49;100.00;93909.91;2097025;28;20020;-83
2023/10/07 05:01:33;;;;;;;4.82;2.42;;;;;;;2.57;100.00;93910.84;2111108;28;20024;-84
2023/10/07 05:02:35;;;;;;;7.97;2.92;;;;;;;2.37;100.00;93908.16;2104127;28;20019;-82
2023/10/07 05:03:38;;;;;;;9.25;3.58;;;;;;;2.43;100.00;93901.50;2105299;28;20442;-83
2023/10/07 05:04:41;;;;;;;6.50;2.80;;;;;;;2.52;100.00;93898.69;2110193;28;20138;-82
2023/10/07 05:05:45;;;;;;;7.22;2.75;;;;;;;2.54;100.00;93907.00;2112092;28;20059;-84
2023/10/07 05:06:47;;;;;;;7.30;2.78;;;;;;;2.57;100.00;93897.63;2104011;28;20081;-84
2023/10/07 05:07:50;;;;;;;8.23;3.03;;;;;;;2.51;100.00;93899.78;2110721;28;20506;-82
2023/10/07 05:08:51;;;;;;;4.38;2.30;;;;;;;2.52;100.00;93909.22;2109765;28;20028;-82
2023/10/07 05:09:56;;;;;;;8.98;2.30;;;;;;;2.65;100.00;93907.25;2112823;28;20031;-84
2023/10/07 05:11:05;;;;;;;8.60;2.63;;;;;;;2.67;100.00;93911.03;2112756;28;20031;-84
2023/10/07 05:12:06;;;;;;;5.75;2.78;;;;;;;2.62;100.00;93908.69;2111192;28;20419;-83
2023/10/07 05:13:09;;;;;;;5.20;2.42;;;;;;;2.67;100.00;93912.94;2105882;28;20114;-81
2023/10/07 05:14:17;;;;;;;5.88;2.70;;;;;;;2.40;100.00;93911.97;2105004;28;20500;-83
2023/10/07 05:15:19;;;;;;;5.70;2.42;;;;;;;2.51;100.00;93905.84;2098096;28;20091;-84
2023/10/07 05:16:21;;;;;;;5.68;2.60;;;;;;;2.43;100.00;93901.50;2114039;28;20106;-83
2023/10/07 05:17:23;;;;;;;5.43;2.40;;;;;;;2.52;100.00;93902.06;2105297;28;20020;-82
2023/10/07 05:18:24;;;;;;;7.32;2.97;;;;;;;2.46;100.00;93900.81;2105442;28;20031;-84
2023/10/07 05:19:27;;;;;;;5.80;3.03;;;;;;;2.53;100.00;93894.91;2102661;28;20170;-82
2023/10/07 05:20:31;;;;;;;6.20;3.17;;;;;;;2.60;100.00;93881.13;2095347;28;20084;-83
2023/10/07 05:21:32;;;;;;;6.20;3.20;;;;;;;2.59;100.00;93875.09;2105837;28;20134;-82
2023/10/07 05:22:36;;;;;;;5.78;2.63;;;;;;;2.63;100.00;93877.78;2094362;28;20016;-84
2023/10/07 05:23:41;;;;;;;5.43;2.72;;;;;;;2.71;100.00;93876.81;2089364;28;20029;-83
2023/10/07 05:24:46;;;;;;;5.60;2.50;;;;;;;2.69;100.00;93876.41;2106668;27;20032;-82
2023/10/07 05:25:48;;;;;;;6.13;3.00;;;;;;;2.75;100.00;93869.72;2112548;28;20020;-84
2023/10/07 05:26:49;;;;;;;5.15;2.55;;;;;;;2.75;100.00;93861.81;2103941;28;20555;-81
2023/10/07 05:27:50;;;;;;;4.72;2.47;;;;;;;2.81;100.00;93865.72;2103985;28;20027;-83
2023/10/07 05:28:51;;;;;;;6.30;2.63;;;;;;;2.81;100.00;93860.44;2096591;28;20036;-83
2023/10/07 05:29:52;;;;;;;4.75;2.58;;;;;;;2.76;100.00;93850.91;2105624;28;20035;-81
2023/10/07 05:30:54;;;;;;;5.75;2.55;;;;;;;2.91;100.00;93853.84;2096571;28;20055;-85
2023/10/07 05:32:17;;;;;;;5.45;2.25;;;;;;;2.98;100.00;93856.59;2088988;28;20024;-83
2023/10/07 05:33:25;;;;;;;4.18;2.35;;;;;;;2.94;100.00;93855.75;2097999;28;20035;-83
2023/10/07 05:34:29;;;;;;;4.65;2.47;;;;;;;2.79;100.00;93857.38;2095861;28;20031;-82
2023/10/07 05:35:31;;;;;;;5.97;2.50;;;;;;;2.83;100.00;93854.81;2089039;28;20028;-83